createdAt,value
2023-05-13T00:01:58.292Z,99028.38
2023-05-13T00:04:59.858Z,99023.91
2023-05-13T00:08:02.617Z,99025.16
2023-05-13T00:11:04.393Z,99025.50
2023-05-13T00:14:09.849Z,99021.78
2023-05-13T00:17:11.498Z,99014.44
2023-05-13T00:20:13.085Z,99019.66
2023-05-13T00:23:14.705Z,99016.31
2023-05-13T00:26:16.415Z,99023.75
2023-05-13T00:29:19.806Z,99025.22
2023-05-13T00:32:22.693Z,99024.41
2023-05-13T00:35:24.549Z,99024.09
2023-05-13T00:38:26.143Z,99025.31
2023-05-13T00:41:27.682Z,99023.09
2023-05-13T00:44:29.274Z,99015.31
2023-05-13T00:47:31.220Z,99022.66
2023-05-13T00:50:33.998Z,99023.91
2023-05-13T00:53:36.359Z,99029.06
2023-05-13T00:56:39.275Z,99034.69
2023-05-13T00:59:40.877Z,99027.63
2023-05-13T01:03:13.005Z,99030.56
2023-05-13T01:06:21.599Z,99032.38
2023-05-13T01:09:41.425Z,99038.53
2023-05-13T01:12:45.793Z,99038.53
2023-05-13T01:15:57.022Z,99033.34
2023-05-13T01:19:24.925Z,99032.03
2023-05-13T01:22:27.817Z,99052.00
2023-05-13T01:25:30.069Z,99048.31
2023-05-13T01:28:32.755Z,99052.78
2023-05-13T01:31:35.693Z,99042.84
2023-05-13T01:34:39.508Z,99057.16
2023-05-13T01:37:42.471Z,99035.19
2023-05-13T01:40:44.828Z,99054.09
2023-05-13T01:43:46.614Z,99040.00
2023-05-13T01:46:50.577Z,99044.00
2023-05-13T01:49:53.189Z,99039.72
2023-05-13T01:52:55.023Z,99050.38
2023-05-13T01:55:56.968Z,99054.81
2023-05-13T01:58:58.847Z,99059.63
2023-05-13T02:02:00.553Z,99050.56
2023-05-13T02:05:02.108Z,99043.31
2023-05-13T02:08:04.606Z,99055.50
2023-05-13T02:11:06.363Z,99050.44
2023-05-13T02:14:08.039Z,99057.56
2023-05-13T02:17:09.648Z,99056.81
2023-05-13T02:20:12.425Z,99053.19
2023-05-13T02:23:15.073Z,99045.91
2023-05-13T02:26:16.633Z,99051.44
2023-05-13T02:29:18.287Z,99049.06
2023-05-13T02:32:19.927Z,99039.88
2023-05-13T02:35:22.540Z,99052.25
2023-05-13T02:38:24.523Z,99045.78
2023-05-13T02:41:26.507Z,99047.09
2023-05-13T02:44:28.495Z,99039.66
2023-05-13T02:47:30.336Z,99044.53
2023-05-13T02:50:37.078Z,99022.38
2023-05-13T02:53:39.376Z,99043.59
2023-05-13T02:56:42.942Z,99039.78
2023-05-13T02:59:44.724Z,99033.72
2023-05-13T03:02:46.411Z,99025.97
2023-05-13T03:05:47.980Z,99039.94
2023-05-13T03:08:49.689Z,99031.25
2023-05-13T03:11:51.372Z,99040.28
2023-05-13T03:14:52.889Z,99040.44
2023-05-13T03:17:54.556Z,99044.09
2023-05-13T03:20:56.376Z,99034.94
2023-05-13T03:23:58.118Z,99032.88
2023-05-13T03:27:00.182Z,99036.78
2023-05-13T03:30:02.298Z,99039.31
2023-05-13T03:33:05.051Z,99047.41
2023-05-13T03:36:09.740Z,99050.78
2023-05-13T03:39:11.904Z,99054.28
2023-05-13T03:42:14.131Z,99051.59
2023-05-13T03:45:16.106Z,99061.75
2023-05-13T03:48:22.315Z,99055.09
2023-05-13T03:51:23.977Z,99051.28
2023-05-13T03:54:26.075Z,99059.97
2023-05-13T03:57:27.646Z,99059.81
2023-05-13T04:00:29.232Z,99061.22
2023-05-13T04:03:31.390Z,99056.75
2023-05-13T04:06:33.129Z,99050.25
2023-05-13T04:09:34.770Z,99061.81
2023-05-13T04:12:37.618Z,99061.81
2023-05-13T04:15:39.329Z,99072.59
2023-05-13T04:18:42.528Z,99069.63
2023-05-13T04:21:44.112Z,99075.47
2023-05-13T04:24:45.757Z,99083.88
2023-05-13T04:27:50.287Z,99068.97
2023-05-13T04:31:03.573Z,99088.78
2023-05-13T04:34:07.204Z,99086.56
2023-05-13T04:37:09.512Z,99082.75
2023-05-13T04:40:11.628Z,99082.56
2023-05-13T04:43:14.155Z,99084.50
2023-05-13T04:46:22.052Z,99088.59
2023-05-13T04:49:25.821Z,99085.75
2023-05-13T04:52:28.111Z,99099.69
2023-05-13T04:55:30.097Z,99088.72
2023-05-13T04:58:31.877Z,99081.44
2023-05-13T05:01:33.833Z,99094.72
2023-05-13T05:04:35.580Z,99091.53
2023-05-13T05:07:42.517Z,99090.75
2023-05-13T05:10:44.117Z,99093.75
2023-05-13T05:13:46.949Z,99086.00
2023-05-13T05:16:52.707Z,99084.69
2023-05-13T05:19:55.352Z,99096.28
2023-05-13T05:22:57.104Z,99096.94
2023-05-13T05:26:11.273Z,99101.63
2023-05-13T05:29:15.404Z,99093.53
2023-05-13T05:32:19.440Z,99095.13
2023-05-13T05:35:21.144Z,99107.03
2023-05-13T05:38:25.376Z,99095.97
2023-05-13T05:41:28.575Z,99097.84
2023-05-13T05:44:31.252Z,99083.25
2023-05-13T05:47:32.988Z,99104.63
2023-05-13T05:50:35.114Z,99099.50
2023-05-13T05:53:40.882Z,99104.72
2023-05-13T05:56:42.778Z,99109.28
2023-05-13T05:59:44.423Z,99110.66
2023-05-13T06:02:49.002Z,99103.97
2023-05-13T06:05:51.399Z,99120.00
2023-05-13T06:08:53.611Z,99124.69
2023-05-13T06:11:55.346Z,99122.09
2023-05-13T06:14:58.568Z,99110.44
2023-05-13T06:18:04.652Z,99120.06
2023-05-13T06:21:08.911Z,99125.88
2023-05-13T06:24:10.554Z,99117.19
2023-05-13T06:27:12.287Z,99125.59
2023-05-13T06:30:14.297Z,99130.72
2023-05-13T06:33:17.438Z,99133.50
2023-05-13T06:36:19.026Z,99126.59
2023-05-13T06:39:21.125Z,99133.34
2023-05-13T06:42:25.043Z,99129.16
2023-05-13T06:45:34.126Z,99138.56
2023-05-13T06:48:36.127Z,99132.28
2023-05-13T06:51:39.397Z,99137.22
2023-05-13T06:54:40.919Z,99137.00
2023-05-13T06:57:46.736Z,99139.97
2023-05-13T07:00:48.525Z,99138.50
2023-05-13T07:03:50.121Z,99149.44
2023-05-13T07:06:51.787Z,99158.38
2023-05-13T07:09:53.353Z,99154.53
2023-05-13T07:12:54.880Z,99154.31
2023-05-13T07:15:56.534Z,99150.97
2023-05-13T07:18:58.120Z,99155.00
2023-05-13T07:21:59.712Z,99137.97
2023-05-13T07:25:01.519Z,99155.13
2023-05-13T07:28:03.472Z,99152.88
2023-05-13T07:31:05.877Z,99151.28
2023-05-13T07:34:07.480Z,99152.22
2023-05-13T07:37:09.382Z,99156.16
2023-05-13T07:40:11.338Z,99163.72
2023-05-13T07:43:13.798Z,99161.47
2023-05-13T07:46:15.553Z,99167.91
2023-05-13T07:49:17.116Z,99165.19
2023-05-13T07:52:18.731Z,99165.75
2023-05-13T07:55:20.574Z,99168.81
2023-05-13T07:58:22.555Z,99168.47
2023-05-13T08:01:24.154Z,99169.22
2023-05-13T08:04:26.855Z,99160.31
2023-05-13T08:07:28.500Z,99171.72
2023-05-13T08:10:30.918Z,99159.03
2023-05-13T08:13:32.511Z,99172.13
2023-05-13T08:16:37.212Z,99167.59
2023-05-13T08:19:38.929Z,99171.84
2023-05-13T08:22:40.744Z,99165.38
2023-05-13T08:25:42.421Z,99158.97
2023-05-13T08:28:44.401Z,99174.34
2023-05-13T08:31:46.125Z,99171.13
2023-05-13T08:34:48.137Z,99166.94
2023-05-13T08:37:49.664Z,99162.81
2023-05-13T08:40:51.190Z,99171.97
2023-05-13T08:43:57.089Z,99164.78
2023-05-13T08:47:29.873Z,99166.78
2023-05-13T08:50:32.182Z,99167.75
2023-05-13T08:53:35.614Z,99166.06
2023-05-13T08:56:37.713Z,99171.94
2023-05-13T08:59:39.247Z,99172.69
2023-05-13T09:02:44.332Z,99171.94
2023-05-13T09:05:46.950Z,99170.00
2023-05-13T09:08:48.714Z,99175.88
2023-05-13T09:11:51.550Z,99165.44
2023-05-13T09:14:53.090Z,99159.63
2023-05-13T09:18:05.300Z,99162.28
2023-05-13T09:21:43.788Z,99171.75
2023-05-13T09:24:54.614Z,99157.66
2023-05-13T09:27:59.188Z,99172.50
2023-05-13T09:31:00.864Z,99168.81
2023-05-13T09:34:02.566Z,99157.97
2023-05-13T09:37:09.036Z,99163.78
2023-05-13T09:40:16.215Z,99152.13
2023-05-13T09:43:20.735Z,99162.69
2023-05-13T09:46:22.429Z,99157.97
2023-05-13T09:49:26.820Z,99164.78
2023-05-13T09:52:30.849Z,99146.78
2023-05-13T09:55:33.935Z,99164.84
2023-05-13T09:58:36.021Z,99158.31
2023-05-13T10:01:40.558Z,99150.97
2023-05-13T10:04:42.997Z,99157.13
2023-05-13T10:07:44.786Z,99156.84
2023-05-13T10:10:50.195Z,99161.81
2023-05-13T10:14:03.237Z,99179.16
2023-05-13T10:17:05.825Z,99167.50
2023-05-13T10:20:07.919Z,99152.72
2023-05-13T10:23:10.511Z,99154.06
2023-05-13T10:26:12.921Z,99150.72
2023-05-13T10:29:14.958Z,99156.03
2023-05-13T10:32:16.671Z,99161.22
2023-05-13T10:35:20.579Z,99155.16
2023-05-13T10:38:46.725Z,99161.72
2023-05-13T10:42:19.993Z,99159.88
2023-05-13T10:45:26.362Z,99158.66
2023-05-13T10:48:43.210Z,99150.66
2023-05-13T10:51:49.484Z,99154.03
2023-05-13T10:55:02.400Z,99151.22
2023-05-13T10:58:09.868Z,99159.72
2023-05-13T11:01:34.707Z,99151.00
2023-05-13T11:05:00.216Z,99154.50
2023-05-13T11:08:01.844Z,99141.03
2023-05-13T11:11:03.512Z,99153.09
2023-05-13T11:14:19.246Z,99161.66
2023-05-13T11:17:20.995Z,99142.94
2023-05-13T11:20:24.687Z,99145.09
2023-05-13T11:23:26.404Z,99146.19
2023-05-13T11:26:44.176Z,99150.56
2023-05-13T11:29:50.462Z,99150.75
2023-05-13T11:32:56.031Z,99149.41
2023-05-13T11:35:57.727Z,99147.34
2023-05-13T11:39:06.996Z,99143.91
2023-05-13T11:42:10.713Z,99147.00
2023-05-13T11:45:14.969Z,99149.53
2023-05-13T11:48:23.809Z,99141.19
2023-05-13T11:51:25.589Z,99131.31
2023-05-13T11:54:28.006Z,99129.19
2023-05-13T11:57:34.359Z,99145.50
2023-05-13T12:00:36.017Z,99145.00
2023-05-13T12:03:37.745Z,99141.03
2023-05-13T12:06:49.151Z,99151.66
2023-05-13T12:09:52.924Z,99144.13
2023-05-13T12:12:55.145Z,99154.44
2023-05-13T12:15:56.999Z,99153.81
2023-05-13T12:19:06.445Z,99147.78
2023-05-13T12:22:08.858Z,99152.16
2023-05-13T12:25:35.709Z,99141.09
2023-05-13T12:28:37.201Z,99146.22
2023-05-13T12:31:38.952Z,99138.31
2023-05-13T12:34:40.762Z,99130.47
2023-05-13T12:37:42.477Z,99125.13
2023-05-13T12:40:48.419Z,99123.41
2023-05-13T12:43:50.443Z,99143.00
2023-05-13T12:46:54.197Z,99132.28
2023-05-13T12:50:00.994Z,99143.41
2023-05-13T12:53:02.823Z,99130.94
2023-05-13T12:56:04.876Z,99141.53
2023-05-13T12:59:06.572Z,99142.81
2023-05-13T13:02:08.136Z,99142.38
2023-05-13T13:05:09.963Z,99145.47
2023-05-13T13:08:11.563Z,99141.19
2023-05-13T13:11:18.720Z,99141.75
2023-05-13T13:14:20.656Z,99133.03
2023-05-13T13:17:22.266Z,99137.19
2023-05-13T13:20:24.159Z,99139.44
2023-05-13T13:23:25.915Z,99127.31
2023-05-13T13:26:27.696Z,99131.50
2023-05-13T13:29:29.323Z,99144.31
2023-05-13T13:32:31.011Z,99135.00
2023-05-13T13:35:32.753Z,99125.34
2023-05-13T13:38:34.322Z,99126.03
2023-05-13T13:41:35.963Z,99131.06
2023-05-13T13:44:39.430Z,99125.34
2023-05-13T13:47:41.692Z,99120.38
2023-05-13T13:50:45.376Z,99126.66
2023-05-13T13:53:49.491Z,99118.44
2023-05-13T13:56:52.717Z,99112.22
2023-05-13T13:59:54.291Z,99125.28
2023-05-13T14:02:56.570Z,99120.88
2023-05-13T14:05:58.337Z,99129.91
2023-05-13T14:08:59.884Z,99125.06
2023-05-13T14:12:01.721Z,99112.66
2023-05-13T14:15:03.705Z,99126.63
2023-05-13T14:18:08.795Z,99119.69
2023-05-13T14:21:10.434Z,99123.38
2023-05-13T14:24:12.255Z,99119.50
2023-05-13T14:27:14.377Z,99113.91
2023-05-13T14:30:15.988Z,99111.28
2023-05-13T14:33:17.594Z,99105.19
2023-05-13T14:36:20.753Z,99105.47
2023-05-13T14:39:22.405Z,99113.72
2023-05-13T14:42:23.964Z,99099.81
2023-05-13T14:45:25.542Z,99103.00
2023-05-13T14:48:27.509Z,99092.63
2023-05-13T14:51:29.289Z,99096.44
2023-05-13T14:54:35.608Z,99087.91
2023-05-13T14:57:37.392Z,99099.63
2023-05-13T15:00:39.672Z,99094.19
2023-05-13T15:03:41.463Z,99095.72
2023-05-13T15:06:43.043Z,99102.22
2023-05-13T15:09:44.568Z,99102.06
2023-05-13T15:12:46.241Z,99091.59
2023-05-13T15:15:47.844Z,99102.22
2023-05-13T15:18:52.611Z,99105.84
2023-05-13T15:21:54.263Z,99094.41
2023-05-13T15:24:55.848Z,99098.50
2023-05-13T15:27:57.392Z,99092.94
2023-05-13T15:30:59.002Z,99086.75
2023-05-13T15:34:00.696Z,99097.31
2023-05-13T15:37:03.592Z,99087.72
2023-05-13T15:40:05.745Z,99093.22
2023-05-13T15:43:07.295Z,99092.03
2023-05-13T15:46:08.935Z,99096.03
2023-05-13T15:49:10.586Z,99094.66
2023-05-13T15:52:12.360Z,99089.53
2023-05-13T15:55:14.432Z,99091.47
2023-05-13T15:58:15.980Z,99090.84
2023-05-13T16:01:17.996Z,99077.88
2023-05-13T16:04:19.748Z,99089.22
2023-05-13T16:07:23.884Z,99097.16
2023-05-13T16:10:25.529Z,99101.09
2023-05-13T16:13:27.168Z,99094.78
2023-05-13T16:16:28.806Z,99099.16
2023-05-13T16:19:30.818Z,99092.84
2023-05-13T16:22:38.236Z,99091.81
2023-05-13T16:25:40.085Z,99093.72
2023-05-13T16:28:41.757Z,99103.81
2023-05-13T16:31:43.453Z,99097.63
2023-05-13T16:34:45.043Z,99091.09
2023-05-13T16:37:46.836Z,99097.88
2023-05-13T16:40:48.671Z,99100.19
2023-05-13T16:43:50.314Z,99093.81
2023-05-13T16:46:51.927Z,99087.56
2023-05-13T16:49:54.458Z,99085.38
2023-05-13T16:52:56.992Z,99098.47
2023-05-13T16:55:58.663Z,99097.81
2023-05-13T16:59:00.323Z,99093.41
2023-05-13T17:02:01.981Z,99087.03
2023-05-13T17:05:04.846Z,99089.09
2023-05-13T17:08:06.535Z,99085.84
2023-05-13T17:11:15.818Z,99074.72
2023-05-13T17:14:17.668Z,99076.31
2023-05-13T17:17:19.395Z,99075.31
2023-05-13T17:20:21.526Z,99072.56
2023-05-13T17:23:23.752Z,99080.13
2023-05-13T17:26:26.253Z,99086.28
2023-05-13T17:29:27.794Z,99083.84
2023-05-13T17:32:29.595Z,99077.91
2023-05-13T17:35:31.317Z,99084.81
2023-05-13T17:38:32.939Z,99087.88
2023-05-13T17:41:34.629Z,99070.19
2023-05-13T17:44:36.263Z,99077.09
2023-05-13T17:47:37.934Z,99077.66
2023-05-13T17:50:39.552Z,99081.22
2023-05-13T17:53:41.194Z,99079.25
2023-05-13T17:56:42.753Z,99082.19
2023-05-13T17:59:44.311Z,99073.75
2023-05-13T18:02:46.039Z,99092.22
2023-05-13T18:05:48.239Z,99089.16
2023-05-13T18:08:49.856Z,99085.41
2023-05-13T18:11:51.764Z,99084.47
2023-05-13T18:14:53.371Z,99092.50
2023-05-13T18:17:55.093Z,99097.94
2023-05-13T18:20:58.465Z,99097.00
2023-05-13T18:24:00.242Z,99099.22
2023-05-13T18:27:01.870Z,99109.63
2023-05-13T18:30:03.683Z,99107.59
2023-05-13T18:33:05.441Z,99090.44
2023-05-13T18:36:08.751Z,99097.44
2023-05-13T18:39:11.477Z,99101.53
2023-05-13T18:42:13.165Z,99119.06
2023-05-13T18:45:14.788Z,99116.28
2023-05-13T18:48:16.428Z,99129.25
2023-05-13T18:51:18.021Z,99122.41
2023-05-13T18:54:22.354Z,99121.31
2023-05-13T18:57:25.184Z,99119.47
2023-05-13T19:00:26.982Z,99122.81
2023-05-13T19:03:28.798Z,99129.19
2023-05-13T19:06:30.593Z,99115.00
2023-05-13T19:09:34.197Z,99118.84
2023-05-13T19:12:35.739Z,99132.53
2023-05-13T19:15:37.535Z,99139.44
2023-05-13T19:18:39.121Z,99134.03
2023-05-13T19:21:40.763Z,99128.75
2023-05-13T19:24:42.355Z,99133.84
2023-05-13T19:27:44.267Z,99134.31
2023-05-13T19:30:46.472Z,99147.63
2023-05-13T19:33:48.674Z,99151.09
2023-05-13T19:36:50.438Z,99150.91
2023-05-13T19:39:52.126Z,99151.66
2023-05-13T19:42:54.040Z,99160.34
2023-05-13T19:45:57.495Z,99166.91
2023-05-13T19:48:59.002Z,99160.91
2023-05-13T19:52:00.730Z,99168.16
2023-05-13T19:55:04.390Z,99165.94
2023-05-13T19:58:06.589Z,99171.38
2023-05-13T20:01:09.355Z,99173.22
2023-05-13T20:04:17.570Z,99165.06
2023-05-13T20:07:22.455Z,99163.63
2023-05-13T20:10:24.351Z,99168.47
2023-05-13T20:13:28.121Z,99169.03
2023-05-13T20:16:32.138Z,99167.56
2023-05-13T20:19:36.954Z,99177.34
2023-05-13T20:22:39.415Z,99179.84
2023-05-13T20:25:45.066Z,99170.88
2023-05-13T20:28:47.885Z,99182.81
2023-05-13T20:31:49.926Z,99175.69
2023-05-13T20:34:54.844Z,99176.72
2023-05-13T20:37:57.334Z,99184.84
2023-05-13T20:40:59.292Z,99171.16
2023-05-13T20:44:01.119Z,99166.31
2023-05-13T20:47:03.609Z,99163.59
2023-05-13T20:50:05.871Z,99177.03
2023-05-13T20:53:07.756Z,99176.63
2023-05-13T20:56:12.333Z,99183.28
2023-05-13T20:59:14.018Z,99173.91
2023-05-13T21:02:16.029Z,99182.25
2023-05-13T21:05:18.451Z,99177.47
2023-05-13T21:08:21.239Z,99184.03
2023-05-13T21:11:22.962Z,99176.00
2023-05-13T21:14:24.572Z,99167.22
2023-05-13T21:17:26.545Z,99158.31
2023-05-13T21:20:28.227Z,99162.16
2023-05-13T21:23:33.362Z,99160.03
2023-05-13T21:26:35.059Z,99169.50
2023-05-13T21:29:36.671Z,99174.25
2023-05-13T21:32:38.225Z,99163.41
2023-05-13T21:35:39.797Z,99169.97
2023-05-13T21:38:41.459Z,99165.31
2023-05-13T21:41:44.279Z,99158.41
2023-05-13T21:44:45.998Z,99160.38
2023-05-13T21:47:47.593Z,99152.91
2023-05-13T21:50:49.124Z,99154.94
2023-05-13T21:53:50.725Z,99152.13
2023-05-13T21:56:52.409Z,99141.06
2023-05-13T21:59:54.076Z,99151.59
2023-05-13T22:03:00.618Z,99145.16
2023-05-13T22:06:02.868Z,99154.44
2023-05-13T22:09:04.531Z,99144.63
2023-05-13T22:12:06.357Z,99148.56
2023-05-13T22:15:08.620Z,99141.53
2023-05-13T22:18:10.500Z,99147.31
2023-05-13T22:21:12.180Z,99151.03
2023-05-13T22:24:14.011Z,99144.50
2023-05-13T22:27:16.530Z,99134.78
2023-05-13T22:30:18.585Z,99137.41
2023-05-13T22:33:20.227Z,99143.16
2023-05-13T22:36:21.867Z,99135.91
2023-05-13T22:39:25.160Z,99147.06
2023-05-13T22:42:27.292Z,99156.31
2023-05-13T22:45:28.981Z,99147.72
2023-05-13T22:48:30.692Z,99148.41
2023-05-13T22:51:32.799Z,99138.56
2023-05-13T22:54:34.474Z,99142.03
2023-05-13T22:57:36.109Z,99141.28
2023-05-13T23:00:37.632Z,99132.81
2023-05-13T23:03:39.240Z,99138.09
2023-05-13T23:06:41.215Z,99122.94
2023-05-13T23:09:42.834Z,99128.69
2023-05-13T23:12:44.372Z,99119.66
2023-05-13T23:15:46.048Z,99118.84
2023-05-13T23:18:47.648Z,99107.78
2023-05-13T23:21:49.288Z,99111.31
2023-05-13T23:24:50.868Z,99104.31
2023-05-13T23:27:52.412Z,99094.81
2023-05-13T23:30:54.384Z,99093.91
2023-05-13T23:33:56.081Z,99094.38
2023-05-13T23:36:57.613Z,99083.19
2023-05-13T23:39:59.476Z,99077.03
2023-05-13T23:43:01.088Z,99084.75
2023-05-13T23:46:02.748Z,99076.22
2023-05-13T23:49:04.365Z,99087.09
2023-05-13T23:52:06.286Z,99089.00
2023-05-13T23:55:08.352Z,99093.56
2023-05-13T23:58:10.019Z,99095.94
